sensor_id;sensor_type;location;lat;lon;timestamp;P1;durP1;ratioP1;P2;durP2;ratioP2
29538;SDS011;16482;51.046;4.498;2023-04-15T00:01:26;4.22;;;2.30;;
29538;SDS011;16482;51.046;4.498;2023-04-15T00:03:55;4.10;;;2.47;;
29538;SDS011;16482;51.046;4.498;2023-04-15T00:06:24;4.10;;;2.78;;
29538;SDS011;16482;51.046;4.498;2023-04-15T00:08:58;4.15;;;2.40;;
29538;SDS011;16482;51.046;4.498;2023-04-15T00:11:27;3.95;;;2.40;;
29538;SDS011;16482;51.046;4.498;2023-04-15T00:14:01;3.28;;;2.30;;
29538;SDS011;16482;51.046;4.498;2023-04-15T00:16:27;3.65;;;2.30;;
29538;SDS011;16482;51.046;4.498;2023-04-15T00:19:00;4.45;;;2.50;;
29538;SDS011;16482;51.046;4.498;2023-04-15T00:21:29;3.75;;;2.38;;
29538;SDS011;16482;51.046;4.498;2023-04-15T00:23:55;4.13;;;2.55;;
29538;SDS011;16482;51.046;4.498;2023-04-15T00:26:29;3.88;;;2.20;;
29538;SDS011;16482;51.046;4.498;2023-04-15T00:28:57;3.75;;;2.15;;
29538;SDS011;16482;51.046;4.498;2023-04-15T00:31:26;5.20;;;2.65;;
29538;SDS011;16482;51.046;4.498;2023-04-15T00:34:01;5.50;;;2.88;;
29538;SDS011;16482;51.046;4.498;2023-04-15T00:36:27;4.22;;;2.47;;
29538;SDS011;16482;51.046;4.498;2023-04-15T00:39:02;3.90;;;2.45;;
29538;SDS011;16482;51.046;4.498;2023-04-15T00:41:29;4.32;;;2.63;;
29538;SDS011;16482;51.046;4.498;2023-04-15T00:43:55;2.45;;;2.22;;
29538;SDS011;16482;51.046;4.498;2023-04-15T00:46:27;5.00;;;2.28;;
29538;SDS011;16482;51.046;4.498;2023-04-15T00:48:56;5.60;;;2.42;;
29538;SDS011;16482;51.046;4.498;2023-04-15T00:51:27;4.45;;;2.60;;
29538;SDS011;16482;51.046;4.498;2023-04-15T00:54:02;5.20;;;2.45;;
29538;SDS011;16482;51.046;4.498;2023-04-15T00:56:28;3.72;;;2.65;;
29538;SDS011;16482;51.046;4.498;2023-04-15T00:58:57;3.78;;;2.33;;
29538;SDS011;16482;51.046;4.498;2023-04-15T01:01:32;4.63;;;2.70;;
29538;SDS011;16482;51.046;4.498;2023-04-15T01:03:59;2.97;;;2.10;;
29538;SDS011;16482;51.046;4.498;2023-04-15T01:06:28;2.63;;;2.05;;
29538;SDS011;16482;51.046;4.498;2023-04-15T01:08:55;3.33;;;2.30;;
29538;SDS011;16482;51.046;4.498;2023-04-15T01:11:31;4.13;;;2.50;;
29538;SDS011;16482;51.046;4.498;2023-04-15T01:13:58;6.22;;;2.33;;
29538;SDS011;16482;51.046;4.498;2023-04-15T01:16:27;4.60;;;2.58;;
29538;SDS011;16482;51.046;4.498;2023-04-15T01:18:56;3.65;;;2.10;;
29538;SDS011;16482;51.046;4.498;2023-04-15T01:21:31;3.63;;;2.50;;
29538;SDS011;16482;51.046;4.498;2023-04-15T01:23:57;4.10;;;2.60;;
29538;SDS011;16482;51.046;4.498;2023-04-15T01:26:26;4.20;;;2.47;;
29538;SDS011;16482;51.046;4.498;2023-04-15T01:28:55;3.22;;;1.95;;
29538;SDS011;16482;51.046;4.498;2023-04-15T01:31:29;6.05;;;2.65;;
29538;SDS011;16482;51.046;4.498;2023-04-15T01:33:59;4.18;;;2.40;;
29538;SDS011;16482;51.046;4.498;2023-04-15T01:36:27;4.97;;;2.50;;
29538;SDS011;16482;51.046;4.498;2023-04-15T01:39:01;3.97;;;2.38;;
29538;SDS011;16482;51.046;4.498;2023-04-15T01:41:28;3.92;;;2.53;;
29538;SDS011;16482;51.046;4.498;2023-04-15T01:43:57;3.10;;;2.17;;
29538;SDS011;16482;51.046;4.498;2023-04-15T01:46:32;3.30;;;2.33;;
29538;SDS011;16482;51.046;4.498;2023-04-15T01:48:58;3.28;;;2.58;;
29538;SDS011;16482;51.046;4.498;2023-04-15T01:51:24;3.88;;;2.20;;
29538;SDS011;16482;51.046;4.498;2023-04-15T01:53:51;4.07;;;2.50;;
29538;SDS011;16482;51.046;4.498;2023-04-15T01:56:27;3.47;;;2.40;;
29538;SDS011;16482;51.046;4.498;2023-04-15T01:58:56;4.60;;;2.70;;
29538;SDS011;16482;51.046;4.498;2023-04-15T02:01:25;4.53;;;2.65;;
29538;SDS011;16482;51.046;4.498;2023-04-15T02:03:57;3.67;;;2.70;;
29538;SDS011;16482;51.046;4.498;2023-04-15T02:06:32;3.50;;;2.33;;
29538;SDS011;16482;51.046;4.498;2023-04-15T02:08:58;4.32;;;2.35;;
29538;SDS011;16482;51.046;4.498;2023-04-15T02:11:27;3.83;;;2.40;;
29538;SDS011;16482;51.046;4.498;2023-04-15T02:14:02;4.43;;;2.53;;
29538;SDS011;16482;51.046;4.498;2023-04-15T02:16:29;3.50;;;2.30;;
29538;SDS011;16482;51.046;4.498;2023-04-15T02:18:59;3.97;;;2.33;;
29538;SDS011;16482;51.046;4.498;2023-04-15T02:21:28;3.35;;;2.15;;
29538;SDS011;16482;51.046;4.498;2023-04-15T02:24:03;4.55;;;2.55;;
29538;SDS011;16482;51.046;4.498;2023-04-15T02:26:29;5.35;;;2.80;;
29538;SDS011;16482;51.046;4.498;2023-04-15T02:28:58;4.82;;;2.45;;
29538;SDS011;16482;51.046;4.498;2023-04-15T02:31:33;4.25;;;2.70;;
29538;SDS011;16482;51.046;4.498;2023-04-15T02:34:04;5.88;;;2.78;;
29538;SDS011;16482;51.046;4.498;2023-04-15T02:36:30;4.18;;;2.70;;
29538;SDS011;16482;51.046;4.498;2023-04-15T02:38:57;4.20;;;2.20;;
29538;SDS011;16482;51.046;4.498;2023-04-15T02:41:26;3.58;;;2.63;;
29538;SDS011;16482;51.046;4.498;2023-04-15T02:44:00;3.85;;;2.50;;
29538;SDS011;16482;51.046;4.498;2023-04-15T02:46:29;3.78;;;2.30;;
29538;SDS011;16482;51.046;4.498;2023-04-15T02:49:02;3.17;;;2.30;;
29538;SDS011;16482;51.046;4.498;2023-04-15T02:51:29;3.97;;;2.45;;
29538;SDS011;16482;51.046;4.498;2023-04-15T02:53:59;4.78;;;2.72;;
29538;SDS011;16482;51.046;4.498;2023-04-15T02:56:28;3.72;;;2.47;;
29538;SDS011;16482;51.046;4.498;2023-04-15T02:58:57;3.42;;;2.60;;
29538;SDS011;16482;51.046;4.498;2023-04-15T03:01:23;3.83;;;2.63;;
29538;SDS011;16482;51.046;4.498;2023-04-15T03:03:58;5.57;;;2.90;;
29538;SDS011;16482;51.046;4.498;2023-04-15T03:06:32;3.92;;;2.78;;
29538;SDS011;16482;51.046;4.498;2023-04-15T03:08:57;4.20;;;2.78;;
29538;SDS011;16482;51.046;4.498;2023-04-15T03:11:30;4.40;;;2.22;;
29538;SDS011;16482;51.046;4.498;2023-04-15T03:13:59;5.90;;;2.78;;
29538;SDS011;16482;51.046;4.498;2023-04-15T03:16:28;3.15;;;2.30;;
29538;SDS011;16482;51.046;4.498;2023-04-15T03:18:57;5.10;;;2.80;;
29538;SDS011;16482;51.046;4.498;2023-04-15T03:21:34;4.28;;;2.70;;
29538;SDS011;16482;51.046;4.498;2023-04-15T03:24:00;4.18;;;2.90;;
29538;SDS011;16482;51.046;4.498;2023-04-15T03:26:29;4.25;;;2.60;;
29538;SDS011;16482;51.046;4.498;2023-04-15T03:28:59;5.90;;;2.67;;
29538;SDS011;16482;51.046;4.498;2023-04-15T03:31:34;4.28;;;2.60;;
29538;SDS011;16482;51.046;4.498;2023-04-15T03:34:00;5.25;;;3.00;;
29538;SDS011;16482;51.046;4.498;2023-04-15T03:36:28;4.78;;;2.92;;
29538;SDS011;16482;51.046;4.498;2023-04-15T03:38:59;4.05;;;2.75;;
29538;SDS011;16482;51.046;4.498;2023-04-15T03:41:28;5.68;;;2.75;;
29538;SDS011;16482;51.046;4.498;2023-04-15T03:44:04;5.32;;;2.67;;
29538;SDS011;16482;51.046;4.498;2023-04-15T03:46:30;4.93;;;2.85;;
29538;SDS011;16482;51.046;4.498;2023-04-15T03:48:59;4.35;;;2.83;;
29538;SDS011;16482;51.046;4.498;2023-04-15T03:51:28;4.47;;;2.72;;
29538;SDS011;16482;51.046;4.498;2023-04-15T03:53:59;3.83;;;2.60;;
29538;SDS011;16482;51.046;4.498;2023-04-15T03:56:35;3.58;;;2.30;;
29538;SDS011;16482;51.046;4.498;2023-04-15T03:59:01;3.83;;;2.50;;
29538;SDS011;16482;51.046;4.498;2023-04-15T04:01:30;5.28;;;2.47;;
29538;SDS011;16482;51.046;4.498;2023-04-15T04:04:04;5.43;;;2.78;;
29538;SDS011;16482;51.046;4.498;2023-04-15T04:06:30;4.07;;;2.70;;
29538;SDS011;16482;51.046;4.498;2023-04-15T04:08:59;4.15;;;2.40;;
29538;SDS011;16482;51.046;4.498;2023-04-15T04:11:28;3.90;;;2.80;;
29538;SDS011;16482;51.046;4.498;2023-04-15T04:14:03;4.43;;;2.55;;
29538;SDS011;16482;51.046;4.498;2023-04-15T04:16:29;2.83;;;2.38;;
29538;SDS011;16482;51.046;4.498;2023-04-15T04:18:58;4.93;;;2.90;;
29538;SDS011;16482;51.046;4.498;2023-04-15T04:21:29;3.45;;;2.58;;
29538;SDS011;16482;51.046;4.498;2023-04-15T04:23:58;4.43;;;2.67;;
29538;SDS011;16482;51.046;4.498;2023-04-15T04:26:32;4.38;;;2.70;;
29538;SDS011;16482;51.046;4.498;2023-04-15T04:28:58;5.25;;;2.80;;
29538;SDS011;16482;51.046;4.498;2023-04-15T04:31:33;3.70;;;2.45;;
29538;SDS011;16482;51.046;4.498;2023-04-15T04:34:01;2.83;;;2.53;;
29538;SDS011;16482;51.046;4.498;2023-04-15T04:36:30;6.55;;;3.08;;
29538;SDS011;16482;51.046;4.498;2023-04-15T04:39:05;3.28;;;2.35;;
29538;SDS011;16482;51.046;4.498;2023-04-15T04:41:31;4.43;;;2.60;;
29538;SDS011;16482;51.046;4.498;2023-04-15T04:43:59;6.38;;;2.60;;
29538;SDS011;16482;51.046;4.498;2023-04-15T04:46:34;5.47;;;2.65;;
29538;SDS011;16482;51.046;4.498;2023-04-15T04:49:00;4.55;;;2.92;;
29538;SDS011;16482;51.046;4.498;2023-04-15T04:51:29;3.70;;;2.38;;
29538;SDS011;16482;51.046;4.498;2023-04-15T04:53:59;5.30;;;2.60;;
29538;SDS011;16482;51.046;4.498;2023-04-15T04:56:28;3.80;;;2.63;;
29538;SDS011;16482;51.046;4.498;2023-04-15T04:58:59;5.57;;;2.78;;
29538;SDS011;16482;51.046;4.498;2023-04-15T05:01:34;4.32;;;2.60;;
29538;SDS011;16482;51.046;4.498;2023-04-15T05:04:00;6.18;;;2.47;;
29538;SDS011;16482;51.046;4.498;2023-04-15T05:06:34;5.85;;;2.70;;
29538;SDS011;16482;51.046;4.498;2023-04-15T05:09:01;4.53;;;2.97;;
29538;SDS011;16482;51.046;4.498;2023-04-15T05:11:27;5.57;;;2.50;;
29538;SDS011;16482;51.046;4.498;2023-04-15T05:13:58;4.28;;;2.83;;
29538;SDS011;16482;51.046;4.498;2023-04-15T05:16:33;4.30;;;2.65;;
29538;SDS011;16482;51.046;4.498;2023-04-15T05:18:59;4.20;;;2.83;;
29538;SDS011;16482;51.046;4.498;2023-04-15T05:21:33;4.65;;;2.58;;
29538;SDS011;16482;51.046;4.498;2023-04-15T05:23:59;3.72;;;2.45;;
29538;SDS011;16482;51.046;4.498;2023-04-15T05:26:28;4.35;;;2.83;;
29538;SDS011;16482;51.046;4.498;2023-04-15T05:29:01;5.25;;;3.10;;
29538;SDS011;16482;51.046;4.498;2023-04-15T05:31:30;4.95;;;2.78;;
29538;SDS011;16482;51.046;4.498;2023-04-15T05:33:59;6.20;;;2.72;;
29538;SDS011;16482;51.046;4.498;2023-04-15T05:36:33;4.20;;;2.60;;
29538;SDS011;16482;51.046;4.498;2023-04-15T05:38:59;4.20;;;2.60;;
29538;SDS011;16482;51.046;4.498;2023-04-15T05:41:28;2.75;;;2.30;;
29538;SDS011;16482;51.046;4.498;2023-04-15T05:44:03;3.47;;;2.30;;
29538;SDS011;16482;51.046;4.498;2023-04-15T05:46:31;3.90;;;2.58;;
29538;SDS011;16482;51.046;4.498;2023-04-15T05:49:00;3.53;;;2.47;;
29538;SDS011;16482;51.046;4.498;2023-04-15T05:51:33;4.35;;;2.45;;
29538;SDS011;16482;51.046;4.498;2023-04-15T05:54:02;3.22;;;2.15;;
29538;SDS011;16482;51.046;4.498;2023-04-15T05:56:28;3.55;;;2.45;;
29538;SDS011;16482;51.046;4.498;2023-04-15T05:58:54;4.40;;;2.53;;
29538;SDS011;16482;51.046;4.498;2023-04-15T06:01:31;5.22;;;2.60;;
29538;SDS011;16482;51.046;4.498;2023-04-15T06:04:00;2.88;;;2.20;;
29538;SDS011;16482;51.046;4.498;2023-04-15T06:06:27;4.10;;;2.60;;
29538;SDS011;16482;51.046;4.498;2023-04-15T06:09:00;2.72;;;2.20;;
29538;SDS011;16482;51.046;4.498;2023-04-15T06:11:35;6.20;;;2.58;;
29538;SDS011;16482;51.046;4.498;2023-04-15T06:14:01;3.42;;;2.10;;
29538;SDS011;16482;51.046;4.498;2023-04-15T06:16:30;4.28;;;2.38;;
29538;SDS011;16482;51.046;4.498;2023-04-15T06:18:59;4.55;;;2.53;;
29538;SDS011;16482;51.046;4.498;2023-04-15T06:21:34;3.75;;;2.38;;
29538;SDS011;16482;51.046;4.498;2023-04-15T06:24:00;3.78;;;2.33;;
29538;SDS011;16482;51.046;4.498;2023-04-15T06:26:33;3.08;;;2.30;;
29538;SDS011;16482;51.046;4.498;2023-04-15T06:29:00;3.67;;;2.05;;
29538;SDS011;16482;51.046;4.498;2023-04-15T06:31:33;3.15;;;2.20;;
29538;SDS011;16482;51.046;4.498;2023-04-15T06:33:59;4.00;;;2.67;;
29538;SDS011;16482;51.046;4.498;2023-04-15T06:36:33;4.25;;;2.50;;
29538;SDS011;16482;51.046;4.498;2023-04-15T06:39:01;3.83;;;2.40;;
29538;SDS011;16482;51.046;4.498;2023-04-15T06:41:30;3.67;;;2.28;;
29538;SDS011;16482;51.046;4.498;2023-04-15T06:43:59;3.83;;;2.08;;
29538;SDS011;16482;51.046;4.498;2023-04-15T06:46:32;3.03;;;2.15;;
29538;SDS011;16482;51.046;4.498;2023-04-15T06:49:01;3.38;;;2.00;;
29538;SDS011;16482;51.046;4.498;2023-04-15T06:51:30;4.05;;;2.40;;
29538;SDS011;16482;51.046;4.498;2023-04-15T06:53:59;3.55;;;2.60;;
29538;SDS011;16482;51.046;4.498;2023-04-15T06:56:34;4.63;;;2.22;;
29538;SDS011;16482;51.046;4.498;2023-04-15T06:59:00;5.70;;;2.75;;
29538;SDS011;16482;51.046;4.498;2023-04-15T07:01:28;3.33;;;2.25;;
29538;SDS011;16482;51.046;4.498;2023-04-15T07:04:03;6.82;;;2.58;;
29538;SDS011;16482;51.046;4.498;2023-04-15T07:06:37;4.55;;;2.50;;
29538;SDS011;16482;51.046;4.498;2023-04-15T07:09:03;4.13;;;2.35;;
29538;SDS011;16482;51.046;4.498;2023-04-15T07:11:32;4.63;;;2.30;;
29538;SDS011;16482;51.046;4.498;2023-04-15T07:13:58;3.90;;;2.30;;
29538;SDS011;16482;51.046;4.498;2023-04-15T07:16:32;5.18;;;2.28;;
29538;SDS011;16482;51.046;4.498;2023-04-15T07:19:00;4.32;;;2.38;;
29538;SDS011;16482;51.046;4.498;2023-04-15T07:21:35;4.72;;;2.10;;
29538;SDS011;16482;51.046;4.498;2023-04-15T07:24:01;4.95;;;2.45;;
29538;SDS011;16482;51.046;4.498;2023-04-15T07:26:30;5.05;;;2.50;;
29538;SDS011;16482;51.046;4.498;2023-04-15T07:29:05;7.00;;;2.53;;
29538;SDS011;16482;51.046;4.498;2023-04-15T07:31:33;5.20;;;2.50;;
29538;SDS011;16482;51.046;4.498;2023-04-15T07:34:01;5.60;;;2.38;;
29538;SDS011;16482;51.046;4.498;2023-04-15T07:36:30;4.68;;;2.60;;
29538;SDS011;16482;51.046;4.498;2023-04-15T07:38:59;7.18;;;2.60;;
29538;SDS011;16482;51.046;4.498;2023-04-15T07:41:29;6.80;;;3.05;;
29538;SDS011;16482;51.046;4.498;2023-04-15T07:44:03;5.55;;;2.30;;
29538;SDS011;16482;51.046;4.498;2023-04-15T07:46:29;4.07;;;2.30;;
29538;SDS011;16482;51.046;4.498;2023-04-15T07:49:04;5.38;;;2.38;;
29538;SDS011;16482;51.046;4.498;2023-04-15T07:51:34;6.35;;;2.95;;
29538;SDS011;16482;51.046;4.498;2023-04-15T07:54:01;4.75;;;2.10;;
29538;SDS011;16482;51.046;4.498;2023-04-15T07:56:30;4.22;;;2.70;;
29538;SDS011;16482;51.046;4.498;2023-04-15T07:58:59;4.18;;;2.47;;
29538;SDS011;16482;51.046;4.498;2023-04-15T08:01:30;7.00;;;2.63;;
29538;SDS011;16482;51.046;4.498;2023-04-15T08:03:59;5.63;;;2.70;;
29538;SDS011;16482;51.046;4.498;2023-04-15T08:06:33;4.05;;;2.22;;
29538;SDS011;16482;51.046;4.498;2023-04-15T08:09:01;5.22;;;2.58;;
29538;SDS011;16482;51.046;4.498;2023-04-15T08:11:29;5.38;;;2.75;;
29538;SDS011;16482;51.046;4.498;2023-04-15T08:14:05;15.30;;;3.42;;
29538;SDS011;16482;51.046;4.498;2023-04-15T08:16:31;7.85;;;2.60;;
29538;SDS011;16482;51.046;4.498;2023-04-15T08:18:57;9.23;;;2.50;;
29538;SDS011;16482;51.046;4.498;2023-04-15T08:21:23;7.25;;;2.47;;
29538;SDS011;16482;51.046;4.498;2023-04-15T08:24:01;14.68;;;3.05;;
29538;SDS011;16482;51.046;4.498;2023-04-15T08:26:29;8.02;;;2.83;;
29538;SDS011;16482;51.046;4.498;2023-04-15T08:29:05;4.00;;;2.80;;
29538;SDS011;16482;51.046;4.498;2023-04-15T08:31:31;8.98;;;2.42;;
29538;SDS011;16482;51.046;4.498;2023-04-15T08:33:59;5.20;;;2.53;;
29538;SDS011;16482;51.046;4.498;2023-04-15T08:36:33;6.47;;;2.40;;
29538;SDS011;16482;51.046;4.498;2023-04-15T08:38:59;10.15;;;2.97;;
29538;SDS011;16482;51.046;4.498;2023-04-15T08:41:39;8.50;;;2.85;;
29538;SDS011;16482;51.046;4.498;2023-04-15T08:44:12;6.38;;;2.70;;
29538;SDS011;16482;51.046;4.498;2023-04-15T08:46:38;6.70;;;2.53;;
29538;SDS011;16482;51.046;4.498;2023-04-15T08:49:08;7.22;;;2.80;;
29538;SDS011;16482;51.046;4.498;2023-04-15T08:51:39;14.25;;;2.50;;
29538;SDS011;16482;51.046;4.498;2023-04-15T08:54:06;9.63;;;2.60;;
29538;SDS011;16482;51.046;4.498;2023-04-15T08:56:33;6.13;;;2.55;;
29538;SDS011;16482;51.046;4.498;2023-04-15T08:59:02;8.02;;;2.45;;
29538;SDS011;16482;51.046;4.498;2023-04-15T09:01:30;8.18;;;2.22;;
29538;SDS011;16482;51.046;4.498;2023-04-15T09:04:00;4.85;;;2.53;;
29538;SDS011;16482;51.046;4.498;2023-04-15T09:06:30;5.75;;;2.08;;
29538;SDS011;16482;51.046;4.498;2023-04-15T09:08:59;4.32;;;2.42;;
29538;SDS011;16482;51.046;4.498;2023-04-15T09:11:34;4.72;;;2.28;;
29538;SDS011;16482;51.046;4.498;2023-04-15T09:14:00;5.18;;;2.63;;
29538;SDS011;16482;51.046;4.498;2023-04-15T09:16:29;6.00;;;2.25;;
29538;SDS011;16482;51.046;4.498;2023-04-15T09:19:04;3.47;;;2.22;;
29538;SDS011;16482;51.046;4.498;2023-04-15T09:21:46;7.38;;;2.40;;
29538;SDS011;16482;51.046;4.498;2023-04-15T09:24:12;5.75;;;2.40;;
29538;SDS011;16482;51.046;4.498;2023-04-15T09:26:38;5.20;;;2.50;;
29538;SDS011;16482;51.046;4.498;2023-04-15T09:29:08;4.53;;;2.17;;
29538;SDS011;16482;51.046;4.498;2023-04-15T09:31:37;4.10;;;2.00;;
29538;SDS011;16482;51.046;4.498;2023-04-15T09:34:04;6.53;;;2.05;;
29538;SDS011;16482;51.046;4.498;2023-04-15T09:39:12;6.32;;;1.63;;
29538;SDS011;16482;51.046;4.498;2023-04-15T09:41:38;9.05;;;1.88;;
29538;SDS011;16482;51.046;4.498;2023-04-15T09:44:05;3.92;;;1.92;;
29538;SDS011;16482;51.046;4.498;2023-04-15T09:46:41;4.97;;;2.15;;
29538;SDS011;16482;51.046;4.498;2023-04-15T09:49:08;5.78;;;1.77;;
29538;SDS011;16482;51.046;4.498;2023-04-15T09:51:35;6.43;;;1.58;;
29538;SDS011;16482;51.046;4.498;2023-04-15T09:54:02;4.63;;;1.70;;
29538;SDS011;16482;51.046;4.498;2023-04-15T09:56:35;3.33;;;1.70;;
29538;SDS011;16482;51.046;4.498;2023-04-15T09:59:06;7.22;;;1.92;;
29538;SDS011;16482;51.046;4.498;2023-04-15T10:01:32;5.95;;;1.63;;
29538;SDS011;16482;51.046;4.498;2023-04-15T10:03:59;4.13;;;1.90;;
29538;SDS011;16482;51.046;4.498;2023-04-15T10:06:28;2.33;;;1.63;;
29538;SDS011;16482;51.046;4.498;2023-04-15T10:08:58;3.35;;;1.60;;
29538;SDS011;16482;51.046;4.498;2023-04-15T10:11:29;4.70;;;1.73;;
29538;SDS011;16482;51.046;4.498;2023-04-15T10:14:04;3.92;;;1.83;;
29538;SDS011;16482;51.046;4.498;2023-04-15T10:16:32;3.50;;;1.70;;
29538;SDS011;16482;51.046;4.498;2023-04-15T10:19:00;3.55;;;1.70;;
29538;SDS011;16482;51.046;4.498;2023-04-15T10:21:31;3.80;;;1.80;;
29538;SDS011;16482;51.046;4.498;2023-04-15T10:24:01;2.88;;;1.60;;
29538;SDS011;16482;51.046;4.498;2023-04-15T10:26:31;3.03;;;1.40;;
29538;SDS011;16482;51.046;4.498;2023-04-15T10:29:05;5.88;;;1.50;;
29538;SDS011;16482;51.046;4.498;2023-04-15T10:31:32;2.77;;;1.53;;
29538;SDS011;16482;51.046;4.498;2023-04-15T10:34:02;5.45;;;1.63;;
29538;SDS011;16482;51.046;4.498;2023-04-15T10:36:31;4.05;;;1.60;;
29538;SDS011;16482;51.046;4.498;2023-04-15T10:39:43;2.42;;;1.40;;
29538;SDS011;16482;51.046;4.498;2023-04-15T10:42:08;3.58;;;1.40;;
29538;SDS011;16482;51.046;4.498;2023-04-15T10:44:56;2.92;;;1.50;;
29538;SDS011;16482;51.046;4.498;2023-04-15T10:47:22;2.15;;;1.20;;
29538;SDS011;16482;51.046;4.498;2023-04-15T10:49:56;4.35;;;1.40;;
29538;SDS011;16482;51.046;4.498;2023-04-15T10:52:24;3.05;;;1.50;;
29538;SDS011;16482;51.046;4.498;2023-04-15T10:57:40;3.72;;;1.30;;
29538;SDS011;16482;51.046;4.498;2023-04-15T11:02:52;2.42;;;1.30;;
29538;SDS011;16482;51.046;4.498;2023-04-15T11:08:15;5.10;;;1.30;;
29538;SDS011;16482;51.046;4.498;2023-04-15T11:15:42;1.85;;;1.23;;
29538;SDS011;16482;51.046;4.498;2023-04-15T11:18:21;1.55;;;1.10;;
29538;SDS011;16482;51.046;4.498;2023-04-15T11:20:56;2.35;;;1.25;;
29538;SDS011;16482;51.046;4.498;2023-04-15T11:23:34;1.40;;;0.90;;
29538;SDS011;16482;51.046;4.498;2023-04-15T11:26:02;2.67;;;1.35;;
29538;SDS011;16482;51.046;4.498;2023-04-15T11:28:33;5.43;;;1.30;;
29538;SDS011;16482;51.046;4.498;2023-04-15T11:31:18;2.08;;;1.20;;
29538;SDS011;16482;51.046;4.498;2023-04-15T11:33:45;3.00;;;1.27;;
29538;SDS011;16482;51.046;4.498;2023-04-15T11:36:17;7.20;;;1.30;;
29538;SDS011;16482;51.046;4.498;2023-04-15T11:38:44;3.78;;;1.30;;
29538;SDS011;16482;51.046;4.498;2023-04-15T11:41:11;3.50;;;1.30;;
29538;SDS011;16482;51.046;4.498;2023-04-15T11:43:37;2.20;;;1.20;;
29538;SDS011;16482;51.046;4.498;2023-04-15T11:46:03;2.08;;;1.20;;
29538;SDS011;16482;51.046;4.498;2023-04-15T11:48:31;2.70;;;1.40;;
29538;SDS011;16482;51.046;4.498;2023-04-15T11:51:02;1.85;;;0.95;;
29538;SDS011;16482;51.046;4.498;2023-04-15T11:56:08;2.72;;;1.20;;
29538;SDS011;16482;51.046;4.498;2023-04-15T11:58:40;4.05;;;1.23;;
29538;SDS011;16482;51.046;4.498;2023-04-15T12:01:07;2.10;;;1.00;;
29538;SDS011;16482;51.046;4.498;2023-04-15T12:06:22;2.95;;;1.30;;
29538;SDS011;16482;51.046;4.498;2023-04-15T12:09:12;3.27;;;1.20;;
29538;SDS011;16482;51.046;4.498;2023-04-15T12:11:46;4.65;;;1.13;;
29538;SDS011;16482;51.046;4.498;2023-04-15T12:14:25;1.70;;;1.08;;
29538;SDS011;16482;51.046;4.498;2023-04-15T12:16:56;3.30;;;1.00;;
29538;SDS011;16482;51.046;4.498;2023-04-15T12:19:27;2.75;;;1.00;;
29538;SDS011;16482;51.046;4.498;2023-04-15T12:21:57;3.92;;;1.10;;
29538;SDS011;16482;51.046;4.498;2023-04-15T12:24:25;3.17;;;1.02;;
29538;SDS011;16482;51.046;4.498;2023-04-15T12:26:52;1.77;;;0.90;;
29538;SDS011;16482;51.046;4.498;2023-04-15T12:29:23;3.83;;;1.40;;
29538;SDS011;16482;51.046;4.498;2023-04-15T12:31:51;2.83;;;1.20;;
29538;SDS011;16482;51.046;4.498;2023-04-15T12:34:25;6.93;;;1.08;;
29538;SDS011;16482;51.046;4.498;2023-04-15T12:36:53;4.00;;;1.30;;
29538;SDS011;16482;51.046;4.498;2023-04-15T12:39:22;2.53;;;1.00;;
29538;SDS011;16482;51.046;4.498;2023-04-15T12:41:50;1.80;;;0.90;;
29538;SDS011;16482;51.046;4.498;2023-04-15T12:44:16;3.05;;;0.93;;
29538;SDS011;16482;51.046;4.498;2023-04-15T12:46:43;3.60;;;1.02;;
29538;SDS011;16482;51.046;4.498;2023-04-15T12:49:10;3.30;;;1.02;;
29538;SDS011;16482;51.046;4.498;2023-04-15T12:51:36;2.17;;;1.25;;
29538;SDS011;16482;51.046;4.498;2023-04-15T12:54:02;1.48;;;1.00;;
29538;SDS011;16482;51.046;4.498;2023-04-15T12:56:31;2.30;;;1.00;;
29538;SDS011;16482;51.046;4.498;2023-04-15T12:59:04;1.52;;;0.90;;
29538;SDS011;16482;51.046;4.498;2023-04-15T13:01:30;1.30;;;0.85;;
29538;SDS011;16482;51.046;4.498;2023-04-15T13:03:59;1.63;;;0.82;;
29538;SDS011;16482;51.046;4.498;2023-04-15T13:06:33;1.27;;;0.82;;
29538;SDS011;16482;51.046;4.498;2023-04-15T13:09:01;1.73;;;0.90;;
29538;SDS011;16482;51.046;4.498;2023-04-15T13:11:30;2.08;;;1.00;;
29538;SDS011;16482;51.046;4.498;2023-04-15T13:14:07;1.92;;;1.05;;
29538;SDS011;16482;51.046;4.498;2023-04-15T13:16:34;1.63;;;0.90;;
29538;SDS011;16482;51.046;4.498;2023-04-15T13:19:02;1.65;;;1.00;;
29538;SDS011;16482;51.046;4.498;2023-04-15T13:21:36;3.80;;;1.30;;
29538;SDS011;16482;51.046;4.498;2023-04-15T13:24:02;2.30;;;0.90;;
29538;SDS011;16482;51.046;4.498;2023-04-15T13:26:31;1.85;;;0.80;;
29538;SDS011;16482;51.046;4.498;2023-04-15T13:29:02;1.52;;;1.00;;
29538;SDS011;16482;51.046;4.498;2023-04-15T13:31:31;1.30;;;1.00;;
29538;SDS011;16482;51.046;4.498;2023-04-15T13:34:06;2.60;;;0.93;;
29538;SDS011;16482;51.046;4.498;2023-04-15T13:36:32;2.25;;;0.88;;
29538;SDS011;16482;51.046;4.498;2023-04-15T13:39:01;1.10;;;0.90;;
29538;SDS011;16482;51.046;4.498;2023-04-15T13:41:29;1.77;;;0.90;;
29538;SDS011;16482;51.046;4.498;2023-04-15T13:44:00;2.90;;;1.13;;
29538;SDS011;16482;51.046;4.498;2023-04-15T13:46:34;2.30;;;1.15;;
29538;SDS011;16482;51.046;4.498;2023-04-15T13:49:00;1.80;;;0.90;;
29538;SDS011;16482;51.046;4.498;2023-04-15T13:51:29;3.47;;;1.13;;
29538;SDS011;16482;51.046;4.498;2023-04-15T13:54:04;1.17;;;0.80;;
29538;SDS011;16482;51.046;4.498;2023-04-15T13:56:33;2.22;;;1.10;;
29538;SDS011;16482;51.046;4.498;2023-04-15T13:59:00;1.75;;;0.90;;
29538;SDS011;16482;51.046;4.498;2023-04-15T14:01:30;1.02;;;0.70;;
29538;SDS011;16482;51.046;4.498;2023-04-15T14:04:05;1.35;;;0.80;;
29538;SDS011;16482;51.046;4.498;2023-04-15T14:06:31;1.88;;;0.75;;
29538;SDS011;16482;51.046;4.498;2023-04-15T14:09:00;1.75;;;1.00;;
29538;SDS011;16482;51.046;4.498;2023-04-15T14:11:34;1.20;;;0.90;;
29538;SDS011;16482;51.046;4.498;2023-04-15T14:14:04;2.97;;;1.00;;
29538;SDS011;16482;51.046;4.498;2023-04-15T14:16:33;3.00;;;0.80;;
29538;SDS011;16482;51.046;4.498;2023-04-15T14:19:02;2.45;;;0.93;;
29538;SDS011;16482;51.046;4.498;2023-04-15T14:21:31;1.30;;;0.80;;
29538;SDS011;16482;51.046;4.498;2023-04-15T14:24:06;1.20;;;0.80;;
29538;SDS011;16482;51.046;4.498;2023-04-15T14:26:32;1.30;;;0.82;;
29538;SDS011;16482;51.046;4.498;2023-04-15T14:29:07;2.97;;;1.00;;
29538;SDS011;16482;51.046;4.498;2023-04-15T14:31:33;2.33;;;0.90;;
29538;SDS011;16482;51.046;4.498;2023-04-15T14:34:02;3.38;;;0.88;;
29538;SDS011;16482;51.046;4.498;2023-04-15T14:36:31;0.98;;;0.70;;
29538;SDS011;16482;51.046;4.498;2023-04-15T14:39:00;1.45;;;0.90;;
29538;SDS011;16482;51.046;4.498;2023-04-15T14:41:30;1.33;;;0.80;;
29538;SDS011;16482;51.046;4.498;2023-04-15T14:44:05;1.95;;;1.10;;
29538;SDS011;16482;51.046;4.498;2023-04-15T14:46:33;2.35;;;0.95;;
29538;SDS011;16482;51.046;4.498;2023-04-15T14:48:59;1.27;;;0.85;;
29538;SDS011;16482;51.046;4.498;2023-04-15T14:51:34;1.73;;;1.00;;
29538;SDS011;16482;51.046;4.498;2023-04-15T14:54:00;1.92;;;0.90;;
29538;SDS011;16482;51.046;4.498;2023-04-15T14:56:35;1.20;;;0.70;;
29538;SDS011;16482;51.046;4.498;2023-04-15T14:59:01;2.75;;;1.00;;
29538;SDS011;16482;51.046;4.498;2023-04-15T15:01:30;1.00;;;0.80;;
29538;SDS011;16482;51.046;4.498;2023-04-15T15:03:59;1.27;;;0.60;;
29538;SDS011;16482;51.046;4.498;2023-04-15T15:06:25;0.73;;;0.73;;
29538;SDS011;16482;51.046;4.498;2023-04-15T15:09:01;2.75;;;1.00;;
29538;SDS011;16482;51.046;4.498;2023-04-15T15:11:30;1.45;;;0.77;;
29538;SDS011;16482;51.046;4.498;2023-04-15T15:14:00;1.20;;;0.90;;
29538;SDS011;16482;51.046;4.498;2023-04-15T15:16:35;2.25;;;0.90;;
29538;SDS011;16482;51.046;4.498;2023-04-15T15:19:01;1.30;;;0.90;;
29538;SDS011;16482;51.046;4.498;2023-04-15T15:21:30;1.30;;;0.70;;
29538;SDS011;16482;51.046;4.498;2023-04-15T15:23:59;2.15;;;0.82;;
29538;SDS011;16482;51.046;4.498;2023-04-15T15:26:30;2.05;;;1.00;;